Forks, Washington
Current Conditions -  °F | °C
As of 2:53 AM on Friday 28 Nov 2014 (Local Time) from KUIL Reporting Station
Light Rain Light Rain  
Wind Chill: 43°   Ceiling: 800
Heat Index: 47°   Visibility: 3mi
Dew Point: 47°   Wind: 8mph
Humidity: 100%   Direction: 300°WNW
Pressure: 29.62"   Gusts: NA
Location:  47.95°N, 124.39°W
Report Text: KUIL 281053Z AUTO 30007KT 3SM -RA BR BKN008 BKN016 OVC021 08/08 A2962 RMK AO2 RAB0959 SLP028 P0011 T00830083
Loading
Personal Weather Stations






























Interactive Weather Map New forecast layout! Learn more

10-Day Weather Forecast

Advertisements
Track Severe Weather on mobile